GW6917 Weather Reports


time (UTC)temp
F
wind
direction
speed
knots
gust
knots
rain 1hr
in
rain 24hr
in
rain mn
in
humidity
%
barometer
mb
20260503022034 50 0 0.0 1.7 0.03 0.07 0.07 89 1012.6
20260503021543 50 46 0.0 1.7 0.03 0.06 0.06 89 1012.7
20260503021034 50 56 0.0 1.7 0.03 0.06 0.06 89 1012.6
20260503020534 50 56 0.0 0.9 0.03 0.05 0.05 88 1012.6
20260503020046 50 0 0.0 0.9 0.03 0.05 0.05 88 1012.7
20260503015534 50 0 0.0 0.9 0.03 0.05 0.05 88 1012.7
20260503015034 50 0 0.0 0.9 0.03 0.04 0.04 88 1012.7
20260503014552 50 0 0.0 0.9 0.03 0.04 0.04 88 1012.6
20260503014034 50 0 0.0 0.9 0.03 0.04 0.04 88 1012.8
20260503013534 50 0 0.0 1.7 0.03 0.03 0.03 88 1012.8
20260503013057 50 0 0.0 1.7 0.03 0.03 0.03 88 1012.8
20260503012536 50 46 0.0 1.7 0.03 0.03 0.03 88 1012.8
20260503012033 50 0 0.0 0.9 0.02 0.03 0.03 88 1012.8
20260503011552 50 0 0.0 0.9 0.02 0.03 0.03 88 1012.8
20260503011033 50 0 0.0 0.9 0.02 0.03 0.03 88 1012.8
20260503010534 50 0 0.0 0.9 0.01 0.02 0.02 88 1012.9
20260503010047 50 0 0.0 0.9 0.02 0.02 0.02 88 1012.9
20260503005534 50 0 0.0 1.7 0.01 0.01 0.01 88 1012.9
20260503005033 50 0 0.0 1.7 0.01 0.01 0.01 88 1013.0
20260503004610 50 117 0.0 1.7 0.01 0.01 0.01 87 1013.0
20260503004033 50 0 0.0 0.9 0.00 0.00 0.00 87 1013.0
20260503003534 50 0 0.0 0.9 0.00 0.00 0.00 87 1013.0
20260503003050 50 0 0.0 1.7 0.00 0.00 0.00 87 1013.1
20260503002537 50 89 0.0 1.7 0.00 0.00 0.00 87 1013.0
20260503002035 50 0 0.0 0.9 0.00 0.00 0.00 87 1013.1
20260503001554 51 0 0.0 0.9 0.00 0.00 0.00 87 1013.1
20260503001036 51 0 0.0 2.6 0.00 0.00 0.00 87 1013.2
20260503000533 51 108 0.0 2.6 0.00 0.00 0.00 87 1013.1
20260503000052 51 28 0.9 2.6 0.00 0.00 0.00 87 1013.1
20260502235534 51 46 0.9 2.6 0.00 0.00 0.00 87 1013.2
20260502235034 51 0 0.9 1.7 0.00 0.00 0.00 87 1013.1
20260502234601 51 63 0.0 3.5 0.00 0.00 0.00 87 1013.2
20260502234033 51 0 0.9 3.5 0.00 0.00 0.00 86 1013.1
20260502233534 51 20 0.9 4.3 0.00 0.00 0.00 86 1013.2
20260502233046 51 18 1.7 4.3 0.00 0.00 0.00 86 1013.2
20260502232534 51 32 1.7 3.5 0.00 0.00 0.00 86 1013.1
20260502232034 51 23 0.9 2.6 0.00 0.00 0.00 86 1013.3
20260502231544 51 46 0.0 1.7 0.00 0.00 0.00 86 1013.4
20260502231035 51 53 0.9 1.7 0.00 0.00 0.00 86 1013.5
20260502230535 51 46 0.0 1.7 0.00 0.00 0.00 86 1013.5
20260502230052 51 0 0.9 1.7 0.00 0.00 0.00 86 1013.5
20260502225536 51 117 0.0 1.7 0.00 0.00 0.00 86 1013.5
20260502225033 51 89 0.0 1.7 0.00 0.00 0.00 86 1013.6
20260502224545 51 89 0.0 1.7 0.00 0.00 0.00 86 1013.6
20260502224034 51 0 0.0 1.7 0.00 0.00 0.00 86 1013.6
20260502223534 51 0 0.0 1.7 0.00 0.00 0.00 85 1013.6
20260502223100 51 0 0.0 1.7 0.00 0.00 0.00 85 1013.6
20260502222535 51 0 0.0 1.7 0.00 0.00 0.00 85 1013.7
20260502222034 51 152 0.0 1.7 0.00 0.00 0.00 84 1013.7
20260502221548 51 0 0.0 0.9 0.00 0.00 0.00 84 1013.7
20260502221033 51 0 0.0 0.9 0.00 0.00 0.00 83 1013.8
20260502220534 51 0 0.0 0.9 0.00 0.00 0.00 83 1013.7
20260502220101 51 117 0.0 1.7 0.00 0.00 0.00 83 1013.8
20260502215534 51 0 0.0 1.7 0.00 0.00 0.00 83 1013.9
20260502215033 51 105 0.0 1.7 0.00 0.00 0.00 83 1013.8
20260502214608 52 152 0.9 1.7 0.00 0.00 0.00 82 1013.9
20260502214034 52 89 0.0 1.7 0.00 0.00 0.00 82 1013.9
20260502213536 52 89 0.0 1.7 0.00 0.00 0.00 82 1014.1
20260502213105 52 108 0.0 0.9 0.00 0.00 0.00 82 1014.0
20260502212534 52 124 0.0 1.7 0.00 0.00 0.00 82 1014.1
20260502212036 52 89 0.0 1.7 0.00 0.00 0.00 82 1014.1
20260502211553 52 89 0.0 1.7 0.00 0.00 0.00 82 1014.0
20260502211033 52 124 0.9 1.7 0.00 0.00 0.00 82 1014.2
20260502210534 52 108 0.0 1.7 0.00 0.00 0.00 81 1014.1
20260502210049 52 117 0.9 1.7 0.00 0.00 0.00 81 1014.2
20260502205533 52 135 0.9 1.7 0.00 0.00 0.00 81 1014.2
20260502205037 52 0 0.0 2.6 0.00 0.00 0.00 80 1014.2
20260502204549 53 28 0.9 2.6 0.00 0.00 0.00 81 1014.2
20260502204034 53 46 0.9 1.7 0.00 0.00 0.00 81 1014.2
20260502203533 53 28 0.9 1.7 0.00 0.00 0.00 81 1014.2
20260502203110 53 314 0.9 1.7 0.00 0.00 0.00 81 1014.3
20260502202535 53 1 0.0 1.7 0.00 0.00 0.00 81 1014.2
20260502202037 53 35 0.0 1.7 0.00 0.00 0.00 80 1014.3
20260502201549 53 46 0.9 1.7 0.00 0.00 0.00 80 1014.3
20260502201034 53 76 0.0 1.7 0.00 0.00 0.00 80 1014.3
20260502200535 53 72 0.0 2.6 0.00 0.00 0.00 79 1014.3
20260502200055 53 35 0.9 2.6 0.00 0.00 0.00 79 1014.4
20260502195533 53 23 0.9 1.7 0.00 0.00 0.00 79 1014.3
20260502195034 53 1 0.0 1.7 0.00 0.00 0.00 78 1014.4
20260502194550 53 0 0.0 2.6 0.00 0.00 0.00 78 1014.3
20260502194033 53 46 0.9 2.6 0.00 0.00 0.00 78 1014.3
20260502193535 53 331 0.9 2.6 0.00 0.00 0.00 78 1014.3
20260502193046 53 314 0.9 3.5 0.00 0.00 0.00 78 1014.2
20260502192533 54 0 0.9 3.5 0.00 0.00 0.00 78 1014.3
20260502192033 54 338 0.9 4.3 0.00 0.00 0.00 77 1014.3
20260502191549 54 324 0.9 6.1 0.00 0.00 0.00 77 1014.3
20260502191034 54 301 1.7 6.1 0.00 0.00 0.00 77 1014.2
20260502190536 54 296 1.7 6.1 0.00 0.00 0.00 78 1014.2
20260502190050 54 21 1.7 6.1 0.00 0.00 0.00 79 1014.1
20260502185534 54 336 2.6 6.1 0.00 0.00 0.00 79 1014.1
20260502185039 55 344 2.6 6.1 0.00 0.00 0.00 78 1014.2
20260502184545 55 353 2.6 6.1 0.00 0.00 0.00 78 1014.1
20260502184035 55 28 2.6 7.0 0.00 0.00 0.00 78 1014.1
20260502183534 55 321 2.6 7.0 0.00 0.00 0.00 78 1014.1
20260502183048 56 300 3.5 7.0 0.00 0.00 0.00 77 1014.1
20260502182534 56 8 3.5 7.0 0.00 0.00 0.00 76 1014.1
20260502182033 57 320 2.6 6.1 0.00 0.00 0.00 76 1014.0
20260502181549 57 353 3.5 6.1 0.00 0.00 0.00 76 1014.0
20260502181033 57 331 1.7 5.2 0.00 0.00 0.00 75 1013.9
20260502180534 58 25 1.7 7.0 0.00 0.00 0.00 75 1013.9
20260502164033 60 286 3.5 7.0 0.00 0.05 0.00 71 1014.2
20260502163534 59 347 2.6 7.0 0.00 0.05 0.00 72 1014.2
20260502163109 59 279 3.5 8.7 0.00 0.05 0.00 71 1014.2
20260502162535 59 56 2.6 8.7 0.00 0.05 0.00 71 1014.2
20260502162033 60 280 2.6 7.8 0.00 0.05 0.00 71 1014.3
20260502161604 60 283 3.5 7.8 0.00 0.05 0.00 70 1014.3
20260502161033 60 314 3.5 7.8 0.00 0.05 0.00 70 1014.4
20260502160534 60 269 3.5 7.8 0.00 0.05 0.00 71 1014.4
20260502152034 58 284 5.2 9.6 0.00 0.06 0.00 76 1014.9
20260502151549 58 350 3.5 9.6 0.00 0.06 0.00 76 1014.9
20260502151034 58 278 4.3 9.6 0.00 0.06 0.00 75 1015.0
20260502150534 58 284 4.3 9.6 0.00 0.06 0.00 74 1015.1
20260502130533 58 257 4.3 9.6 0.00 0.06 0.00 75 1015.9
20260502123533 57 18 3.5 10.4 0.00 0.06 0.00 78 1016.1
20260502123108 57 314 3.5 10.4 0.00 0.06 0.00 77 1016.0
20260502122534 57 1 5.2 10.4 0.00 0.06 0.00 78 1016.2
20260502122036 57 318 4.3 9.6 0.00 0.06 0.00 78 1016.2
20260502121545 57 255 4.3 8.7 0.00 0.06 0.00 78 1016.2
20260502121034 57 317 1.7 8.7 0.00 0.06 0.00 79 1016.2
20260502120533 57 292 3.5 8.7 0.00 0.06 0.00 79 1016.2
20260502120107 57 27 5.2 10.4 0.00 0.06 0.00 79 1016.1
20260502115533 56 322 4.3 10.4 0.00 0.06 0.00 79 1016.3
20260502115033 56 302 5.2 10.4 0.00 0.06 0.00 79 1016.3
20260502114548 57 293 5.2 10.4 0.00 0.06 0.00 80 1016.2
20260502114035 56 338 4.3 10.4 0.00 0.06 0.00 80 1016.2
20260502113535 56 315 3.5 10.4 0.00 0.06 0.00 80 1016.3
20260502113050 56 272 5.2 13.0 0.00 0.06 0.00 81 1016.2
20260502112532 55 279 5.2 13.0 0.00 0.06 0.00 81 1016.3
20260502112035 56 294 5.2 12.2 0.00 0.06 0.00 81 1016.5
20260502111547 55 286 6.1 12.2 0.00 0.06 0.00 83 1016.5
20260502111034 55 304 5.2 12.2 0.00 0.06 0.00 84 1016.3
20260502110534 55 297 4.3 9.6 0.00 0.06 0.00 84 1016.3
20260502110052 54 295 4.3 11.3 0.00 0.06 0.00 85 1016.4
20260502105534 54 347 4.3 11.3 0.00 0.06 0.00 85 1016.5
20260502105033 54 337 5.2 11.3 0.00 0.06 0.00 85 1016.4
20260502104544 54 336 5.2 10.4 0.00 0.06 0.00 85 1016.4
20260502104033 54 290 5.2 10.4 0.00 0.06 0.00 86 1016.4
20260502103533 53 276 6.1 10.4 0.00 0.06 0.00 86 1016.5
20260502103045 54 301 3.5 8.7 0.00 0.06 0.00 87 1016.4
20260502102533 53 284 2.6 8.7 0.00 0.06 0.00 87 1016.5
20260502102033 53 284 4.3 10.4 0.00 0.06 0.00 87 1016.4
20260502101548 54 339 4.3 10.4 0.00 0.06 0.00 87 1016.4
20260502101033 54 307 4.3 8.7 0.00 0.06 0.00 87 1016.4
20260502100533 54 290 3.5 9.6 0.00 0.06 0.00 88 1016.4
20260502091034 52 0 0.0 1.7 0.00 0.06 0.00 94 1016.5
20260502090534 52 223 0.0 1.7 0.00 0.06 0.00 94 1016.4
20260502080108 50 231 0.9 2.6 0.00 0.06 0.00 94 1016.7
20260502071033 48 0 0.0 1.7 0.00 0.06 0.00 94 1016.5
20260502070533 48 0 0.0 1.7 0.00 0.06 0.00 94 1016.4
20260502070106 48 46 0.0 1.7 0.00 0.06 0.00 94 1016.4
20260502065532 47 314 0.0 1.7 0.00 0.06 0.00 94 1016.5
20260502065033 47 0 0.0 1.7 0.00 0.06 0.00 94 1016.5
20260502064552 47 46 0.9 1.7 0.00 0.06 0.00 94 1016.4
20260502064036 47 39 0.9 1.7 0.00 0.06 0.00 94 1016.4
20260502063534 47 51 0.0 1.7 0.00 0.06 0.00 94 1016.5
20260502063045 47 89 0.0 1.7 0.00 0.06 0.00 94 1016.4
20260502062535 47 46 0.0 1.7 0.00 0.06 0.00 94 1016.5
20260502062035 47 15 0.0 1.7 0.00 0.06 0.00 94 1016.5
20260502061541 47 0 0.0 1.7 0.00 0.06 0.00 94 1016.5
20260502061037 46 0 0.0 1.7 0.00 0.06 0.00 94 1016.4
20260502060533 46 89 0.0 1.7 0.00 0.06 0.00 94 1016.5
20260502060052 46 89 0.0 1.7 0.00 0.06 0.00 94 1016.5
20260502055535 46 98 0.9 1.7 0.00 0.06 0.00 94 1016.5
20260502055035 46 46 0.9 1.7 0.00 0.06 0.00 94 1016.4
20260502054548 46 39 0.9 1.7 0.00 0.06 0.00 93 1016.4
20260502054033 46 124 0.0 1.7 0.00 0.06 0.00 93 1016.4
20260502053533 46 46 0.9 1.7 0.00 0.06 0.00 93 1016.3
20260502053045 46 72 0.9 1.7 0.00 0.06 0.00 93 1016.4
20260502052533 46 0 0.0 1.7 0.00 0.06 0.00 93 1016.4
20260502052037 46 135 0.0 2.6 0.00 0.06 0.00 93 1016.3
20260502051558 46 46 0.0 2.6 0.00 0.06 0.00 94 1016.4
20260502051034 45 0 0.0 1.7 0.00 0.06 0.00 93 1016.3
20260502050533 45 0 0.0 1.7 0.00 0.06 0.00 93 1016.4
20260502050047 45 0 0.0 1.7 0.00 0.06 0.00 93 1016.2
20260502045536 45 165 0.0 1.7 0.00 0.06 0.00 93 1016.4
20260502045035 45 0 0.0 1.7 0.00 0.06 0.00 93 1016.4
20260502044547 45 39 0.0 1.7 0.00 0.06 0.00 93 1016.4
20260502044033 45 0 0.0 1.7 0.00 0.06 0.00 93 1016.2
20260502043533 45 140 0.0 1.7 0.00 0.06 0.00 93 1016.2
20260502043048 45 124 0.9 1.7 0.00 0.06 0.00 93 1016.3
20260502042533 45 0 0.0 1.7 0.00 0.06 0.00 93 1016.3
20260502042035 44 108 0.0 1.7 0.00 0.06 0.00 93 1016.3
20260502041547 44 89 0.0 1.7 0.00 0.06 0.00 93 1016.4
20260502041033 44 0 0.0 0.9 0.00 0.06 0.00 93 1016.4
20260502040533 44 0 0.0 0.9 0.00 0.06 0.00 93 1016.5
20260502040045 44 0 0.0 2.6 0.00 0.06 0.00 93 1016.5
20260502035535 44 1 0.0 2.6 0.00 0.06 0.00 93 1016.6
20260502035034 44 203 0.0 0.9 0.00 0.06 0.00 92 1016.4
20260502034542 44 0 0.0 0.9 0.00 0.06 0.00 93 1016.5
20260502034036 44 0 0.0 1.7 0.00 0.06 0.00 92 1016.6
20260502033534 44 0 0.0 1.7 0.00 0.06 0.00 92 1016.5
20260502033051 44 46 0.0 0.9 0.00 0.06 0.00 92 1016.5
20260502032533 44 0 0.0 1.7 0.00 0.06 0.00 92 1016.6
20260502032033 44 0 0.0 1.7 0.00 0.06 0.00 92 1016.5
20260502031544 44 23 0.0 1.7 0.00 0.06 0.00 92 1016.6
20260502031036 44 0 0.0 1.7 0.00 0.06 0.00 92 1016.6
20260502030534 44 0 0.0 1.7 0.00 0.06 0.00 92 1016.6
20260502030045 44 0 0.0 1.7 0.00 0.06 0.00 92 1016.7
20260502025533 44 201 0.9 1.7 0.00 0.06 0.00 92 1016.8
20260502025035 44 0 0.0 1.7 0.00 0.06 0.00 92 1016.9
20260502024548 44 105 0.0 1.7 0.00 0.06 0.00 92 1016.8
20260502024036 44 0 0.0 1.7 0.00 0.06 0.00 92 1016.7
20260502023533 44 124 0.0 1.7 0.00 0.06 0.00 92 1016.8
20260502023045 44 89 0.0 2.6 0.00 0.06 0.00 92 1017.0
20260502022534 44 89 0.0 2.6 0.00 0.06 0.00 92 1017.1